Aviation Digital Data Service (ADDS)

Output produced by METARs form (1101 UTC 30 October 2020)
found at http://aviationweather.gov/metar/data/
 
METAR text: KGGG 301053Z 31003KT 10SM CLR 03/02 A3027 RMK AO2 SLP253 T00330022
Conditions at: KGGG (LONGVIEW , TX, US) observed 1053 UTC 30 October 2020
Temperature: 3.3°C (38°F)
Dewpoint: 2.2°C (36°F) [RH = 92%]
Pressure (altimeter): 30.27 inches Hg (1025.1 mb)
[Sea-level pressure: 1025.3 mb]
Winds: from the NW (310 degrees) at 3 MPH (3 knots; 1.5 m/s)
Visibility: 10 or more miles (16+ km)
Ceiling: at least 12,000 feet AGL
Clouds: sky clear below 12,000 feet AGL
Weather: no significant weather observed at this time

METAR text: KGGG 300953Z AUTO 30003KT 10SM CLR 03/02 A3026 RMK AO2 SLP249 T00330022
Conditions at: KGGG (LONGVIEW , TX, US) observed 0953 UTC 30 October 2020
Temperature: 3.3°C (38°F)
Dewpoint: 2.2°C (36°F) [RH = 92%]
Pressure (altimeter): 30.26 inches Hg (1024.8 mb)
[Sea-level pressure: 1024.9 mb]
Winds: from the WNW (300 degrees) at 3 MPH (3 knots; 1.5 m/s)
Visibility: 10 or more miles (16+ km)
Ceiling: at least 12,000 feet AGL
Clouds: sky clear below 12,000 feet AGL
Weather: automated observation with no human augmentation;
there may or may not be significant weather present at this time

Forecast for: KGGG (LONGVIEW , TX, US)
Text: KGGG 300528Z 3006/3106 00000KT P6SM SKC
Forecast period: 0600 to 0700 UTC 30 October 2020
Forecast type: FROM: standard forecast or significant change
Winds: calm
Visibility: 6 or more miles (10+ km)
Clouds: clear skies
Weather: no significant weather forecast for this period
Text: FM300700 34004KT P6SM SKC
Forecast period: 0700 to 1500 UTC 30 October 2020
Forecast type: FROM: standard forecast or significant change
Winds: from the NNW (340 degrees) at 5 MPH (4 knots; 2.1 m/s)
Visibility: 6 or more miles (10+ km)
Clouds: clear skies
Weather: no significant weather forecast for this period
Text: FM301500 04008KT P6SM SCT250
Forecast period: 1500 to 2100 UTC 30 October 2020
Forecast type: FROM: standard forecast or significant change
Winds: from the NE (40 degrees) at 9 MPH (8 knots; 4.1 m/s)
Visibility: 6 or more miles (10+ km)
Ceiling: at least 12,000 feet AGL
Clouds: scattered clouds at 25000 feet AGL
Weather: no significant weather forecast for this period
Text: FM302100 07007KT P6SM SCT250
Forecast period: 2100 UTC 30 October 2020 to 0000 UTC 31 October 2020
Forecast type: FROM: standard forecast or significant change
Winds: from the ENE (70 degrees) at 8 MPH (7 knots; 3.6 m/s)
Visibility: 6 or more miles (10+ km)
Ceiling: at least 12,000 feet AGL
Clouds: scattered clouds at 25000 feet AGL
Weather: no significant weather forecast for this period
Text: FM310000 VRB03KT P6SM SKC
Forecast period: 0000 to 0600 UTC 31 October 2020
Forecast type: FROM: standard forecast or significant change
Winds: variable direction winds at 3 MPH (3 knots; 1.5 m/s)
Visibility: 6 or more miles (10+ km)
Clouds: clear skies
Weather: no significant weather forecast for this period